Super Search Marutan.net
Coverity Scan Build Status
Stuff: The Old Reader | My Ebay | Facebook | Twitter | Youtube | GMail | Calender
Stuff: London Dashboard | Solar HAM | RT Sat Track
Weather: BBC | Lightning Map | Wind Map | Rain Today?
Forums: STH Forums (new) | RPG Maker |
Maps: NLS | Layers of London | Railmap Online

All News

Meteosat IR Meteosat Vis Meteosat-9 IR Meteosat-9 Vis Meteosat-9 WV

EGLL 030220Z AUTO 31003KT 9999 OVC045 08/05 Q1016 NOSIG

EGLC 030420Z AUTO VRB03KT 9999 BKN040 09/01 Q1016

EGKK 022320Z 28003KT 9999 FEW029 06/04 Q1015


Full Network Status | Internal

UserAgent: CCBot/2.0 (https://commoncrawl.org/faq/)
IP: 34.204.178.160 Test